ESCF/LPI METAR and TAF weather

Enter ICAO airport designator
Station Type Date Time Source
ESCF METAR 2021/06/24 05:50 UTC NOAA

ESCF 240550Z 31005KT 9999 FEW037 OVC043 17/14 Q1018


Station Type Date Time Source
ESCF Decoded METAR 2021/06/24 05:50 UTC NOAA

Linkoping / Malmen, Sweden (ESCF) 58-24N 015-31E 117M
Jun 24, 2021 - 01:50 AM EDT / 2021.06.24 0550 UTC
Wind: from the NW (310 degrees) at 6 MPH (5 KT):0
Visibility: greater than 7 mile(s):0
Sky conditions: overcast
Temperature: 62 F (17 C)
Dew Point: 57 F (14 C)
Relative Humidity: 82%
Pressure (altimeter): 30.06 in. Hg (1018 hPa)
ob: ESCF 240550Z 31005KT 9999 FEW037 OVC043 17/14 Q1018
cycle: 6

Station Type Date Time Source
ESCF TAF UTC NOAA

Error!

Example: see airport list